sensor_id;sensor_type;location;lat;lon;timestamp;temperature;humidity
26051;DHT22;13825;53.496;10.020;2023-02-28T00:01:54;2.00;99.90
26051;DHT22;13825;53.496;10.020;2023-02-28T00:04:21;1.90;99.90
26051;DHT22;13825;53.496;10.020;2023-02-28T00:06:48;1.90;99.90
26051;DHT22;13825;53.496;10.020;2023-02-28T00:09:15;2.00;99.90
26051;DHT22;13825;53.496;10.020;2023-02-28T00:11:42;1.90;99.90
26051;DHT22;13825;53.496;10.020;2023-02-28T00:14:11;1.90;99.90
26051;DHT22;13825;53.496;10.020;2023-02-28T00:16:38;1.90;99.90
26051;DHT22;13825;53.496;10.020;2023-02-28T00:19:05;1.90;99.90
26051;DHT22;13825;53.496;10.020;2023-02-28T00:21:33;1.90;99.90
26051;DHT22;13825;53.496;10.020;2023-02-28T00:24:01;1.90;99.90
26051;DHT22;13825;53.496;10.020;2023-02-28T00:26:28;1.90;99.90
26051;DHT22;13825;53.496;10.020;2023-02-28T00:28:55;1.90;99.90
26051;DHT22;13825;53.496;10.020;2023-02-28T00:31:24;1.80;99.90
26051;DHT22;13825;53.496;10.020;2023-02-28T00:33:51;1.70;99.90
26051;DHT22;13825;53.496;10.020;2023-02-28T00:36:18;1.70;99.90
26051;DHT22;13825;53.496;10.020;2023-02-28T00:38:45;1.60;99.90
26051;DHT22;13825;53.496;10.020;2023-02-28T00:41:12;1.40;99.90
26051;DHT22;13825;53.496;10.020;2023-02-28T00:43:39;1.40;99.90
26051;DHT22;13825;53.496;10.020;2023-02-28T00:46:07;1.30;99.90
26051;DHT22;13825;53.496;10.020;2023-02-28T00:48:36;1.20;99.90
26051;DHT22;13825;53.496;10.020;2023-02-28T00:51:03;1.10;99.90
26051;DHT22;13825;53.496;10.020;2023-02-28T00:53:31;1.00;99.90
26051;DHT22;13825;53.496;10.020;2023-02-28T00:55:59;0.90;99.90
26051;DHT22;13825;53.496;10.020;2023-02-28T00:58:26;0.80;99.90
26051;DHT22;13825;53.496;10.020;2023-02-28T01:00:53;0.70;99.90
26051;DHT22;13825;53.496;10.020;2023-02-28T01:03:21;0.60;99.90
26051;DHT22;13825;53.496;10.020;2023-02-28T01:05:50;0.60;99.90
26051;DHT22;13825;53.496;10.020;2023-02-28T01:08:18;0.50;99.90
26051;DHT22;13825;53.496;10.020;2023-02-28T01:10:46;0.50;99.90
26051;DHT22;13825;53.496;10.020;2023-02-28T01:13:13;0.50;99.90
26051;DHT22;13825;53.496;10.020;2023-02-28T01:15:43;0.50;99.90
26051;DHT22;13825;53.496;10.020;2023-02-28T01:18:12;0.60;99.90
26051;DHT22;13825;53.496;10.020;2023-02-28T01:20:39;0.50;99.90
26051;DHT22;13825;53.496;10.020;2023-02-28T01:23:08;0.50;99.90
26051;DHT22;13825;53.496;10.020;2023-02-28T01:25:36;0.70;99.90
26051;DHT22;13825;53.496;10.020;2023-02-28T01:28:04;0.60;99.90
26051;DHT22;13825;53.496;10.020;2023-02-28T01:30:32;0.70;99.90
26051;DHT22;13825;53.496;10.020;2023-02-28T01:32:59;0.70;99.90
26051;DHT22;13825;53.496;10.020;2023-02-28T01:35:27;0.70;99.90
26051;DHT22;13825;53.496;10.020;2023-02-28T01:37:54;0.70;99.90
26051;DHT22;13825;53.496;10.020;2023-02-28T01:40:22;0.80;99.90
26051;DHT22;13825;53.496;10.020;2023-02-28T01:42:49;0.70;99.90
26051;DHT22;13825;53.496;10.020;2023-02-28T01:45:21;0.80;99.90
26051;DHT22;13825;53.496;10.020;2023-02-28T01:47:50;0.80;99.90
26051;DHT22;13825;53.496;10.020;2023-02-28T01:50:19;0.90;99.90
26051;DHT22;13825;53.496;10.020;2023-02-28T01:52:48;0.70;99.90
26051;DHT22;13825;53.496;10.020;2023-02-28T01:55:17;0.70;99.90
26051;DHT22;13825;53.496;10.020;2023-02-28T01:57:50;0.70;99.90
26051;DHT22;13825;53.496;10.020;2023-02-28T02:00:20;0.60;99.90
26051;DHT22;13825;53.496;10.020;2023-02-28T02:02:52;0.50;99.90
26051;DHT22;13825;53.496;10.020;2023-02-28T02:05:21;0.50;99.90
26051;DHT22;13825;53.496;10.020;2023-02-28T02:07:50;0.30;99.90
26051;DHT22;13825;53.496;10.020;2023-02-28T02:10:21;0.30;99.90
26051;DHT22;13825;53.496;10.020;2023-02-28T02:13:05;0.10;99.90
26051;DHT22;13825;53.496;10.020;2023-02-28T02:15:39;-0.10;99.90
26051;DHT22;13825;53.496;10.020;2023-02-28T02:18:15;-0.10;99.90
26051;DHT22;13825;53.496;10.020;2023-02-28T02:20:56;-0.30;99.90
26051;DHT22;13825;53.496;10.020;2023-02-28T02:24:03;-0.40;99.90
26051;DHT22;13825;53.496;10.020;2023-02-28T02:26:55;-0.50;99.90
26051;DHT22;13825;53.496;10.020;2023-02-28T02:29:54;-0.50;99.90
26051;DHT22;13825;53.496;10.020;2023-02-28T02:35:25;-0.80;99.90
26051;DHT22;13825;53.496;10.020;2023-02-28T02:38:00;-0.90;99.90
26051;DHT22;13825;53.496;10.020;2023-02-28T02:40:38;-1.00;99.90
26051;DHT22;13825;53.496;10.020;2023-02-28T02:43:10;-1.10;99.90
26051;DHT22;13825;53.496;10.020;2023-02-28T02:45:42;-1.20;99.90
26051;DHT22;13825;53.496;10.020;2023-02-28T02:48:12;-1.20;99.90
26051;DHT22;13825;53.496;10.020;2023-02-28T02:50:44;-1.20;99.90
26051;DHT22;13825;53.496;10.020;2023-02-28T02:53:15;-1.40;99.90
26051;DHT22;13825;53.496;10.020;2023-02-28T02:55:47;-1.40;99.90
26051;DHT22;13825;53.496;10.020;2023-02-28T02:58:22;-1.40;99.90
26051;DHT22;13825;53.496;10.020;2023-02-28T03:00:53;-1.40;99.90
26051;DHT22;13825;53.496;10.020;2023-02-28T03:03:21;-1.50;99.90
26051;DHT22;13825;53.496;10.020;2023-02-28T03:05:56;-1.50;99.90
26051;DHT22;13825;53.496;10.020;2023-02-28T03:08:23;-1.60;99.90
26051;DHT22;13825;53.496;10.020;2023-02-28T03:10:51;-1.50;99.90
26051;DHT22;13825;53.496;10.020;2023-02-28T03:13:45;-1.60;99.90
26051;DHT22;13825;53.496;10.020;2023-02-28T03:16:27;-1.70;99.90
26051;DHT22;13825;53.496;10.020;2023-02-28T03:19:03;-1.70;99.90
26051;DHT22;13825;53.496;10.020;2023-02-28T03:21:36;-1.70;99.90
26051;DHT22;13825;53.496;10.020;2023-02-28T03:24:08;-1.80;99.90
26051;DHT22;13825;53.496;10.020;2023-02-28T03:26:41;-1.80;99.90
26051;DHT22;13825;53.496;10.020;2023-02-28T03:29:15;-1.80;99.90
26051;DHT22;13825;53.496;10.020;2023-02-28T03:31:46;-2.00;99.90
26051;DHT22;13825;53.496;10.020;2023-02-28T03:34:19;-1.90;99.90
26051;DHT22;13825;53.496;10.020;2023-02-28T03:36:52;-2.00;99.90
26051;DHT22;13825;53.496;10.020;2023-02-28T03:39:22;-2.00;99.90
26051;DHT22;13825;53.496;10.020;2023-02-28T03:41:52;-2.00;99.90
26051;DHT22;13825;53.496;10.020;2023-02-28T03:44:23;-2.10;99.90
26051;DHT22;13825;53.496;10.020;2023-02-28T03:46:55;-2.10;99.90
26051;DHT22;13825;53.496;10.020;2023-02-28T03:49:28;-2.20;99.90
26051;DHT22;13825;53.496;10.020;2023-02-28T03:52:01;-2.20;99.90
26051;DHT22;13825;53.496;10.020;2023-02-28T03:54:31;-2.10;99.90
26051;DHT22;13825;53.496;10.020;2023-02-28T03:57:02;-2.20;99.90
26051;DHT22;13825;53.496;10.020;2023-02-28T03:59:34;-2.30;99.90
26051;DHT22;13825;53.496;10.020;2023-02-28T04:02:03;-2.30;99.90
26051;DHT22;13825;53.496;10.020;2023-02-28T04:04:30;-2.30;99.90
26051;DHT22;13825;53.496;10.020;2023-02-28T04:07:04;-2.30;99.90
26051;DHT22;13825;53.496;10.020;2023-02-28T04:09:31;-2.40;99.90
26051;DHT22;13825;53.496;10.020;2023-02-28T04:11:58;-2.40;99.90
26051;DHT22;13825;53.496;10.020;2023-02-28T04:14:25;-2.40;99.90
26051;DHT22;13825;53.496;10.020;2023-02-28T04:16:52;-2.40;99.90
26051;DHT22;13825;53.496;10.020;2023-02-28T04:19:20;-2.40;99.90
26051;DHT22;13825;53.496;10.020;2023-02-28T04:21:48;-2.50;99.90
26051;DHT22;13825;53.496;10.020;2023-02-28T04:24:18;-2.50;99.90
26051;DHT22;13825;53.496;10.020;2023-02-28T04:26:48;-2.50;99.90
26051;DHT22;13825;53.496;10.020;2023-02-28T04:29:19;-2.50;99.90
26051;DHT22;13825;53.496;10.020;2023-02-28T04:31:47;-2.60;99.90
26051;DHT22;13825;53.496;10.020;2023-02-28T04:34:14;-2.60;99.90
26051;DHT22;13825;53.496;10.020;2023-02-28T04:36:41;-2.70;99.90
26051;DHT22;13825;53.496;10.020;2023-02-28T04:39:08;-2.70;99.90
26051;DHT22;13825;53.496;10.020;2023-02-28T04:41:37;-2.70;99.90
26051;DHT22;13825;53.496;10.020;2023-02-28T04:44:04;-2.60;99.90
26051;DHT22;13825;53.496;10.020;2023-02-28T04:46:31;-2.70;99.90
26051;DHT22;13825;53.496;10.020;2023-02-28T04:48:58;-2.70;99.90
26051;DHT22;13825;53.496;10.020;2023-02-28T04:51:25;-2.60;99.90
26051;DHT22;13825;53.496;10.020;2023-02-28T04:53:52;-2.70;99.90
26051;DHT22;13825;53.496;10.020;2023-02-28T04:56:19;-2.80;99.90
26051;DHT22;13825;53.496;10.020;2023-02-28T04:58:48;-2.80;99.90
26051;DHT22;13825;53.496;10.020;2023-02-28T05:01:19;-2.80;99.90
26051;DHT22;13825;53.496;10.020;2023-02-28T05:03:46;-2.90;99.90
26051;DHT22;13825;53.496;10.020;2023-02-28T05:06:14;-2.90;99.90
26051;DHT22;13825;53.496;10.020;2023-02-28T05:08:41;-2.90;99.90
26051;DHT22;13825;53.496;10.020;2023-02-28T05:11:15;-2.90;99.90
26051;DHT22;13825;53.496;10.020;2023-02-28T05:13:42;-2.90;99.90
26051;DHT22;13825;53.496;10.020;2023-02-28T05:16:10;-2.90;99.90
26051;DHT22;13825;53.496;10.020;2023-02-28T05:18:37;-3.00;99.90
26051;DHT22;13825;53.496;10.020;2023-02-28T05:21:04;-3.00;99.90
26051;DHT22;13825;53.496;10.020;2023-02-28T05:23:31;-3.00;99.90
26051;DHT22;13825;53.496;10.020;2023-02-28T05:25:58;-2.90;99.90
26051;DHT22;13825;53.496;10.020;2023-02-28T05:28:25;-3.00;99.90
26051;DHT22;13825;53.496;10.020;2023-02-28T05:30:52;-3.10;99.90
26051;DHT22;13825;53.496;10.020;2023-02-28T05:33:20;-3.10;99.90
26051;DHT22;13825;53.496;10.020;2023-02-28T05:35:47;-3.10;99.90
26051;DHT22;13825;53.496;10.020;2023-02-28T05:38:14;-3.10;99.90
26051;DHT22;13825;53.496;10.020;2023-02-28T05:40:41;-3.20;99.90
26051;DHT22;13825;53.496;10.020;2023-02-28T05:43:10;-3.20;99.90
26051;DHT22;13825;53.496;10.020;2023-02-28T05:45:37;-3.20;99.90
26051;DHT22;13825;53.496;10.020;2023-02-28T05:48:05;-3.20;99.90
26051;DHT22;13825;53.496;10.020;2023-02-28T05:50:33;-3.20;99.90
26051;DHT22;13825;53.496;10.020;2023-02-28T05:53:00;-3.30;99.90
26051;DHT22;13825;53.496;10.020;2023-02-28T05:55:27;-3.30;99.90
26051;DHT22;13825;53.496;10.020;2023-02-28T05:57:54;-3.30;99.90
26051;DHT22;13825;53.496;10.020;2023-02-28T06:00:22;-3.30;99.90
26051;DHT22;13825;53.496;10.020;2023-02-28T06:02:49;-3.30;99.90
26051;DHT22;13825;53.496;10.020;2023-02-28T06:05:17;-3.20;99.90
26051;DHT22;13825;53.496;10.020;2023-02-28T06:07:46;-3.30;99.90
26051;DHT22;13825;53.496;10.020;2023-02-28T06:10:13;-3.30;99.90
26051;DHT22;13825;53.496;10.020;2023-02-28T06:12:40;-3.30;99.90
26051;DHT22;13825;53.496;10.020;2023-02-28T06:15:11;-3.30;99.90
26051;DHT22;13825;53.496;10.020;2023-02-28T06:17:38;-3.30;99.90
26051;DHT22;13825;53.496;10.020;2023-02-28T06:20:06;-3.30;99.90
26051;DHT22;13825;53.496;10.020;2023-02-28T06:22:34;-3.30;99.90
26051;DHT22;13825;53.496;10.020;2023-02-28T06:25:04;-3.20;99.90
26051;DHT22;13825;53.496;10.020;2023-02-28T06:27:31;-3.20;99.90
26051;DHT22;13825;53.496;10.020;2023-02-28T06:29:58;-3.30;99.90
26051;DHT22;13825;53.496;10.020;2023-02-28T06:32:27;-3.30;99.90
26051;DHT22;13825;53.496;10.020;2023-02-28T06:34:54;-3.30;99.90
26051;DHT22;13825;53.496;10.020;2023-02-28T06:37:22;-3.30;99.90
26051;DHT22;13825;53.496;10.020;2023-02-28T06:39:51;-3.20;99.90
26051;DHT22;13825;53.496;10.020;2023-02-28T06:42:20;-3.20;99.90
26051;DHT22;13825;53.496;10.020;2023-02-28T06:44:47;-3.10;99.90
26051;DHT22;13825;53.496;10.020;2023-02-28T06:47:14;-3.20;99.90
26051;DHT22;13825;53.496;10.020;2023-02-28T06:49:41;-3.10;99.90
26051;DHT22;13825;53.496;10.020;2023-02-28T06:52:08;-3.10;99.90
26051;DHT22;13825;53.496;10.020;2023-02-28T06:54:36;-3.00;99.90
26051;DHT22;13825;53.496;10.020;2023-02-28T06:57:03;-3.00;99.90
26051;DHT22;13825;53.496;10.020;2023-02-28T06:59:31;-3.00;99.90
26051;DHT22;13825;53.496;10.020;2023-02-28T07:01:58;-3.00;99.90
26051;DHT22;13825;53.496;10.020;2023-02-28T07:04:25;-2.90;99.90
26051;DHT22;13825;53.496;10.020;2023-02-28T07:06:53;-2.80;99.90
26051;DHT22;13825;53.496;10.020;2023-02-28T07:09:21;-2.70;99.90
26051;DHT22;13825;53.496;10.020;2023-02-28T07:11:48;-2.60;99.90
26051;DHT22;13825;53.496;10.020;2023-02-28T07:14:15;-2.40;99.90
26051;DHT22;13825;53.496;10.020;2023-02-28T07:16:43;-2.30;99.90
26051;DHT22;13825;53.496;10.020;2023-02-28T07:19:11;-2.30;99.90
26051;DHT22;13825;53.496;10.020;2023-02-28T07:21:38;-2.20;99.90
26051;DHT22;13825;53.496;10.020;2023-02-28T07:24:06;-2.00;99.90
26051;DHT22;13825;53.496;10.020;2023-02-28T07:26:32;-2.00;99.90
26051;DHT22;13825;53.496;10.020;2023-02-28T07:29:00;-1.90;99.90
26051;DHT22;13825;53.496;10.020;2023-02-28T07:31:27;-1.80;99.90
26051;DHT22;13825;53.496;10.020;2023-02-28T07:33:56;-1.70;99.90
26051;DHT22;13825;53.496;10.020;2023-02-28T07:36:23;-1.80;99.90
26051;DHT22;13825;53.496;10.020;2023-02-28T07:38:50;-1.60;99.90
26051;DHT22;13825;53.496;10.020;2023-02-28T07:41:17;-1.50;99.90
26051;DHT22;13825;53.496;10.020;2023-02-28T07:43:45;-1.40;99.90
26051;DHT22;13825;53.496;10.020;2023-02-28T07:46:13;-1.40;99.90
26051;DHT22;13825;53.496;10.020;2023-02-28T07:48:41;-1.30;99.90
26051;DHT22;13825;53.496;10.020;2023-02-28T07:51:10;-1.20;99.90
26051;DHT22;13825;53.496;10.020;2023-02-28T07:53:37;-1.00;99.90
26051;DHT22;13825;53.496;10.020;2023-02-28T07:56:05;-1.00;99.90
26051;DHT22;13825;53.496;10.020;2023-02-28T07:58:32;-0.90;99.90
26051;DHT22;13825;53.496;10.020;2023-02-28T08:01:05;-0.90;99.90
26051;DHT22;13825;53.496;10.020;2023-02-28T08:03:33;-0.80;99.90
26051;DHT22;13825;53.496;10.020;2023-02-28T08:06:01;-0.70;99.90
26051;DHT22;13825;53.496;10.020;2023-02-28T08:08:30;-0.60;99.90
26051;DHT22;13825;53.496;10.020;2023-02-28T08:10:58;-0.50;99.90
26051;DHT22;13825;53.496;10.020;2023-02-28T08:13:26;-0.50;99.90
26051;DHT22;13825;53.496;10.020;2023-02-28T08:15:54;-0.30;99.90
26051;DHT22;13825;53.496;10.020;2023-02-28T08:18:21;-0.30;99.90
26051;DHT22;13825;53.496;10.020;2023-02-28T08:20:48;-0.10;99.90
26051;DHT22;13825;53.496;10.020;2023-02-28T08:23:16;0.00;99.90
26051;DHT22;13825;53.496;10.020;2023-02-28T08:25:44;0.00;99.90
26051;DHT22;13825;53.496;10.020;2023-02-28T08:28:12;0.20;99.90
26051;DHT22;13825;53.496;10.020;2023-02-28T08:30:38;0.30;99.90
26051;DHT22;13825;53.496;10.020;2023-02-28T08:33:06;0.40;99.90
26051;DHT22;13825;53.496;10.020;2023-02-28T08:35:35;0.50;99.90
26051;DHT22;13825;53.496;10.020;2023-02-28T08:38:03;0.70;99.90
26051;DHT22;13825;53.496;10.020;2023-02-28T08:40:29;0.80;99.90
26051;DHT22;13825;53.496;10.020;2023-02-28T08:42:58;1.00;99.90
26051;DHT22;13825;53.496;10.020;2023-02-28T08:45:25;1.10;99.90
26051;DHT22;13825;53.496;10.020;2023-02-28T08:47:54;1.10;99.90
26051;DHT22;13825;53.496;10.020;2023-02-28T08:50:22;1.30;99.90
26051;DHT22;13825;53.496;10.020;2023-02-28T08:52:49;1.40;99.90
26051;DHT22;13825;53.496;10.020;2023-02-28T08:55:16;1.50;99.90
26051;DHT22;13825;53.496;10.020;2023-02-28T08:57:44;1.70;99.90
26051;DHT22;13825;53.496;10.020;2023-02-28T09:00:14;1.80;99.90
26051;DHT22;13825;53.496;10.020;2023-02-28T09:02:44;2.00;99.90
26051;DHT22;13825;53.496;10.020;2023-02-28T09:05:11;2.00;99.90
26051;DHT22;13825;53.496;10.020;2023-02-28T09:07:39;2.10;99.90
26051;DHT22;13825;53.496;10.020;2023-02-28T09:10:09;2.20;99.90
26051;DHT22;13825;53.496;10.020;2023-02-28T09:12:39;2.30;99.90
26051;DHT22;13825;53.496;10.020;2023-02-28T09:15:09;2.50;99.90
26051;DHT22;13825;53.496;10.020;2023-02-28T09:17:41;2.60;99.90
26051;DHT22;13825;53.496;10.020;2023-02-28T09:20:11;2.80;99.90
26051;DHT22;13825;53.496;10.020;2023-02-28T09:22:38;2.80;99.90
26051;DHT22;13825;53.496;10.020;2023-02-28T09:25:07;2.90;99.90
26051;DHT22;13825;53.496;10.020;2023-02-28T09:27:35;3.00;99.90
26051;DHT22;13825;53.496;10.020;2023-02-28T09:30:03;3.10;99.90
26051;DHT22;13825;53.496;10.020;2023-02-28T09:32:31;3.30;99.90
26051;DHT22;13825;53.496;10.020;2023-02-28T09:35:24;3.40;99.90
26051;DHT22;13825;53.496;10.020;2023-02-28T09:38:17;3.50;99.90
26051;DHT22;13825;53.496;10.020;2023-02-28T09:40:55;3.60;99.90
26051;DHT22;13825;53.496;10.020;2023-02-28T09:43:24;3.80;99.90
26051;DHT22;13825;53.496;10.020;2023-02-28T09:45:54;4.00;99.90
26051;DHT22;13825;53.496;10.020;2023-02-28T09:48:29;4.00;99.90
26051;DHT22;13825;53.496;10.020;2023-02-28T09:51:04;4.20;99.90
26051;DHT22;13825;53.496;10.020;2023-02-28T09:53:34;4.30;99.90
26051;DHT22;13825;53.496;10.020;2023-02-28T09:56:04;4.40;99.30
26051;DHT22;13825;53.496;10.020;2023-02-28T09:58:39;4.30;99.90
26051;DHT22;13825;53.496;10.020;2023-02-28T10:01:17;4.50;99.90
26051;DHT22;13825;53.496;10.020;2023-02-28T10:03:55;4.50;99.60
26051;DHT22;13825;53.496;10.020;2023-02-28T10:06:28;4.60;99.20
26051;DHT22;13825;53.496;10.020;2023-02-28T10:09:01;4.90;97.60
26051;DHT22;13825;53.496;10.020;2023-02-28T10:11:29;4.90;98.70
26051;DHT22;13825;53.496;10.020;2023-02-28T10:14:01;4.90;98.60
26051;DHT22;13825;53.496;10.020;2023-02-28T10:16:37;4.90;97.10
26051;DHT22;13825;53.496;10.020;2023-02-28T10:19:11;5.20;95.60
26051;DHT22;13825;53.496;10.020;2023-02-28T10:21:44;5.20;92.30
26051;DHT22;13825;53.496;10.020;2023-02-28T10:24:19;5.20;89.00
26051;DHT22;13825;53.496;10.020;2023-02-28T10:26:48;5.20;88.20
26051;DHT22;13825;53.496;10.020;2023-02-28T10:29:17;5.10;88.60
26051;DHT22;13825;53.496;10.020;2023-02-28T10:31:45;5.10;86.80
26051;DHT22;13825;53.496;10.020;2023-02-28T10:34:15;5.20;83.00
26051;DHT22;13825;53.496;10.020;2023-02-28T10:36:44;5.50;78.30
26051;DHT22;13825;53.496;10.020;2023-02-28T10:39:39;5.50;79.70
26051;DHT22;13825;53.496;10.020;2023-02-28T10:42:22;5.70;68.60
26051;DHT22;13825;53.496;10.020;2023-02-28T10:45:09;6.00;71.00
26051;DHT22;13825;53.496;10.020;2023-02-28T10:47:48;6.00;73.90
26051;DHT22;13825;53.496;10.020;2023-02-28T10:50:35;6.00;70.90
26051;DHT22;13825;53.496;10.020;2023-02-28T10:53:27;6.10;70.60
26051;DHT22;13825;53.496;10.020;2023-02-28T10:55:59;5.90;67.80
26051;DHT22;13825;53.496;10.020;2023-02-28T10:58:28;6.30;52.50
26051;DHT22;13825;53.496;10.020;2023-02-28T11:00:56;6.30;46.10
26051;DHT22;13825;53.496;10.020;2023-02-28T11:03:31;6.40;51.80
26051;DHT22;13825;53.496;10.020;2023-02-28T11:06:05;6.50;41.10
26051;DHT22;13825;53.496;10.020;2023-02-28T11:08:47;6.20;50.60
26051;DHT22;13825;53.496;10.020;2023-02-28T11:11:14;6.10;67.50
26051;DHT22;13825;53.496;10.020;2023-02-28T11:13:43;6.10;55.70
26051;DHT22;13825;53.496;10.020;2023-02-28T11:16:12;6.10;60.00
26051;DHT22;13825;53.496;10.020;2023-02-28T11:18:42;6.30;61.40
26051;DHT22;13825;53.496;10.020;2023-02-28T11:21:16;6.10;61.90
26051;DHT22;13825;53.496;10.020;2023-02-28T11:23:49;6.10;62.10
26051;DHT22;13825;53.496;10.020;2023-02-28T11:26:38;6.10;55.10
26051;DHT22;13825;53.496;10.020;2023-02-28T11:29:18;6.30;52.20
26051;DHT22;13825;53.496;10.020;2023-02-28T11:32:05;6.30;60.50
26051;DHT22;13825;53.496;10.020;2023-02-28T11:34:35;6.30;58.20
26051;DHT22;13825;53.496;10.020;2023-02-28T11:37:05;6.70;49.20
26051;DHT22;13825;53.496;10.020;2023-02-28T11:39:36;6.80;43.70
26051;DHT22;13825;53.496;10.020;2023-02-28T11:42:11;7.10;36.40
26051;DHT22;13825;53.496;10.020;2023-02-28T11:44:49;7.00;14.60
26051;DHT22;13825;53.496;10.020;2023-02-28T11:47:29;6.90;33.80
26051;DHT22;13825;53.496;10.020;2023-02-28T11:50:10;7.10;25.50
26051;DHT22;13825;53.496;10.020;2023-02-28T11:53:00;7.20;35.90
26051;DHT22;13825;53.496;10.020;2023-02-28T11:55:36;7.40;25.10
26051;DHT22;13825;53.496;10.020;2023-02-28T11:58:37;7.40;12.90
26051;DHT22;13825;53.496;10.020;2023-02-28T12:01:36;7.40;16.30
26051;DHT22;13825;53.496;10.020;2023-02-28T12:04:24;7.10;1.00
26051;DHT22;13825;53.496;10.020;2023-02-28T12:07:00;7.30;1.00
26051;DHT22;13825;53.496;10.020;2023-02-28T12:09:44;7.30;7.40
26051;DHT22;13825;53.496;10.020;2023-02-28T12:12:23;7.30;17.10
26051;DHT22;13825;53.496;10.020;2023-02-28T12:21:11;7.80;10.80
26051;DHT22;13825;53.496;10.020;2023-02-28T12:24:05;7.80;4.50
26051;DHT22;13825;53.496;10.020;2023-02-28T12:26:48;7.90;15.00
26051;DHT22;13825;53.496;10.020;2023-02-28T12:29:40;7.90;4.80
26051;DHT22;13825;53.496;10.020;2023-02-28T12:32:16;7.60;15.10
26051;DHT22;13825;53.496;10.020;2023-02-28T12:35:03;7.40;7.20
26051;DHT22;13825;53.496;10.020;2023-02-28T12:37:55;7.50;13.30
26051;DHT22;13825;53.496;10.020;2023-02-28T12:56:12;7.90;1.00
26051;DHT22;13825;53.496;10.020;2023-02-28T12:59:07;7.90;1.00
26051;DHT22;13825;53.496;10.020;2023-02-28T13:08:11;7.80;1.00
26051;DHT22;13825;53.496;10.020;2023-02-28T13:10:50;7.90;1.00
26051;DHT22;13825;53.496;10.020;2023-02-28T13:16:14;8.30;1.00
26051;DHT22;13825;53.496;10.020;2023-02-28T13:18:45;8.50;1.00
26051;DHT22;13825;53.496;10.020;2023-02-28T13:21:23;8.50;1.00
26051;DHT22;13825;53.496;10.020;2023-02-28T13:24:03;8.40;1.00
26051;DHT22;13825;53.496;10.020;2023-02-28T13:29:41;8.30;1.00
26051;DHT22;13825;53.496;10.020;2023-02-28T13:32:33;8.50;1.00
26051;DHT22;13825;53.496;10.020;2023-02-28T13:44:02;8.60;1.00
26051;DHT22;13825;53.496;10.020;2023-02-28T13:46:31;8.80;1.00
26051;DHT22;13825;53.496;10.020;2023-02-28T13:49:23;8.90;1.00
26051;DHT22;13825;53.496;10.020;2023-02-28T13:51:52;8.80;1.00
26051;DHT22;13825;53.496;10.020;2023-02-28T13:54:28;8.70;1.00
26051;DHT22;13825;53.496;10.020;2023-02-28T13:57:19;9.00;1.00
26051;DHT22;13825;53.496;10.020;2023-02-28T13:59:59;9.00;1.00
26051;DHT22;13825;53.496;10.020;2023-02-28T14:03:07;9.10;1.00
26051;DHT22;13825;53.496;10.020;2023-02-28T14:05:40;8.90;1.00
26051;DHT22;13825;53.496;10.020;2023-02-28T14:08:13;8.90;1.00
26051;DHT22;13825;53.496;10.020;2023-02-28T14:10:44;9.00;1.00
26051;DHT22;13825;53.496;10.020;2023-02-28T14:15:56;8.90;1.00
26051;DHT22;13825;53.496;10.020;2023-02-28T14:18:27;9.20;1.00
26051;DHT22;13825;53.496;10.020;2023-02-28T14:21:00;9.20;1.00
26051;DHT22;13825;53.496;10.020;2023-02-28T14:23:43;9.10;1.00
26051;DHT22;13825;53.496;10.020;2023-02-28T14:26:22;9.20;1.00
26051;DHT22;13825;53.496;10.020;2023-02-28T14:29:08;9.20;1.00
26051;DHT22;13825;53.496;10.020;2023-02-28T14:31:39;9.40;1.00
26051;DHT22;13825;53.496;10.020;2023-02-28T14:34:31;9.30;1.00
26051;DHT22;13825;53.496;10.020;2023-02-28T14:37:03;9.40;1.00
26051;DHT22;13825;53.496;10.020;2023-02-28T15:07:09;9.80;1.00
26051;DHT22;13825;53.496;10.020;2023-02-28T15:09:38;9.60;1.00
26051;DHT22;13825;53.496;10.020;2023-02-28T15:12:14;9.90;1.00
26051;DHT22;13825;53.496;10.020;2023-02-28T15:14:44;9.90;1.00
26051;DHT22;13825;53.496;10.020;2023-02-28T15:17:19;10.00;1.00
26051;DHT22;13825;53.496;10.020;2023-02-28T15:19:52;9.90;1.00
26051;DHT22;13825;53.496;10.020;2023-02-28T15:22:26;9.70;1.00
26051;DHT22;13825;53.496;10.020;2023-02-28T15:25:18;9.90;1.00
26051;DHT22;13825;53.496;10.020;2023-02-28T16:19:43;9.80;1.00
26051;DHT22;13825;53.496;10.020;2023-02-28T16:22:10;9.60;1.00
26051;DHT22;13825;53.496;10.020;2023-02-28T16:24:37;9.50;1.00
26051;DHT22;13825;53.496;10.020;2023-02-28T16:27:06;9.00;1.00
26051;DHT22;13825;53.496;10.020;2023-02-28T16:29:35;8.20;1.00
26051;DHT22;13825;53.496;10.020;2023-02-28T16:32:04;7.70;1.00
26051;DHT22;13825;53.496;10.020;2023-02-28T16:34:32;7.40;1.00
26051;DHT22;13825;53.496;10.020;2023-02-28T16:37:00;7.00;1.00
26051;DHT22;13825;53.496;10.020;2023-02-28T16:39:27;6.50;1.00
26051;DHT22;13825;53.496;10.020;2023-02-28T16:41:54;6.00;1.00
26051;DHT22;13825;53.496;10.020;2023-02-28T16:44:27;5.70;6.00
26051;DHT22;13825;53.496;10.020;2023-02-28T16:46:55;5.30;19.50
26051;DHT22;13825;53.496;10.020;2023-02-28T16:49:22;5.00;40.90
26051;DHT22;13825;53.496;10.020;2023-02-28T16:51:49;4.80;55.30
26051;DHT22;13825;53.496;10.020;2023-02-28T16:54:17;4.60;51.10
26051;DHT22;13825;53.496;10.020;2023-02-28T16:56:47;4.50;60.00
26051;DHT22;13825;53.496;10.020;2023-02-28T16:59:19;4.20;66.30
26051;DHT22;13825;53.496;10.020;2023-02-28T17:01:46;4.10;77.60
26051;DHT22;13825;53.496;10.020;2023-02-28T17:04:13;3.70;82.40
26051;DHT22;13825;53.496;10.020;2023-02-28T17:06:41;3.60;87.30
26051;DHT22;13825;53.496;10.020;2023-02-28T17:09:10;3.40;88.60
26051;DHT22;13825;53.496;10.020;2023-02-28T17:11:42;3.30;91.60
26051;DHT22;13825;53.496;10.020;2023-02-28T17:14:10;3.10;93.60
26051;DHT22;13825;53.496;10.020;2023-02-28T17:16:38;3.00;93.60
26051;DHT22;13825;53.496;10.020;2023-02-28T17:19:11;2.80;94.60
26051;DHT22;13825;53.496;10.020;2023-02-28T17:21:39;2.80;94.50
26051;DHT22;13825;53.496;10.020;2023-02-28T17:24:08;2.60;95.70
26051;DHT22;13825;53.496;10.020;2023-02-28T17:26:38;2.50;95.90
26051;DHT22;13825;53.496;10.020;2023-02-28T17:29:13;2.40;1.00
26051;DHT22;13825;53.496;10.020;2023-02-28T17:31:41;2.40;1.00
26051;DHT22;13825;53.496;10.020;2023-02-28T17:34:08;2.20;1.00
26051;DHT22;13825;53.496;10.020;2023-02-28T17:36:35;2.00;1.00
26051;DHT22;13825;53.496;10.020;2023-02-28T17:39:04;1.90;1.00
26051;DHT22;13825;53.496;10.020;2023-02-28T17:41:30;1.70;1.00
26051;DHT22;13825;53.496;10.020;2023-02-28T17:43:57;1.60;1.00
26051;DHT22;13825;53.496;10.020;2023-02-28T17:46:29;1.50;1.00
26051;DHT22;13825;53.496;10.020;2023-02-28T17:48:56;1.40;1.00
26051;DHT22;13825;53.496;10.020;2023-02-28T17:51:23;1.30;1.00
26051;DHT22;13825;53.496;10.020;2023-02-28T17:53:51;1.30;1.00
26051;DHT22;13825;53.496;10.020;2023-02-28T17:56:20;1.10;1.00
26051;DHT22;13825;53.496;10.020;2023-02-28T17:58:49;1.10;1.00
26051;DHT22;13825;53.496;10.020;2023-02-28T18:01:16;1.00;1.00
26051;DHT22;13825;53.496;10.020;2023-02-28T18:03:49;0.90;1.00